map of TIW home
TIW - Airport
Location
City:  Tacoma, Washington, United States
Name:Tacoma Narrows Airport
ICAO:KTIW
IATA:TIW
FAA LID:TIW

Details
Type:Airport (Airfield)
Use:Public/Civil, International (customs landing rights)
Latitude:4716'05"N (47.267944)
Longitude:12234'41"W (-122.578110)
Datum:WGS 1984
Elevation:294 ft (90 m)
Variation:15.69E (WMM2015 magnetic declination)
-0.14 annual change
Runways:1
Longest:5002 × 100 ft (1525 × 30.5 m), paved

Time
Time Zone:UTC-8 (DST-7)
Local Time:

Weather
METAR:KTIW 111453Z AUTO 00000KT 1/4SM FG VV002 01/01 A3033 RMK AO2 SLP275 T00110011 50000

Related Locations
Nearby:
Farthest:FTU: 10794 mi / 17372 km
Tolagnaro [Maurillac Airport (Fort Dauphin Airport)], MG

Find:

   beyond  
but within

Other Information
Maps:
NOTAMs:
Links:
Sources:

  
flag of United States
flag of Washington
  

Airport Diagram

Airport diagram for TIW

Airport diagram PDF

Sectional Chart

Flight Planning
at skyvector.com

Satellite Image

Google Maps Satellite view

 

Copyright © 2004-2017 Karl L. Swartz. All rights reserved.
The Great Circle Mapper name and logo are trademarks of the Great Circle Mapper.
All other trademarks mentioned herein belong to their respective owners.
Please see credits for attibutions and further copyright information.

  Follow gcmap on Facebook Follow gcmap on Twitter Follow gcmap on Google+ GCmap on LinkedIn

hCard Microformat

Geo Microformat